sensor_id;sensor_type;location;lat;lon;timestamp;temperature;humidity
11140;DHT22;5624;49.388;11.350;2024-02-16T00:02:06;7.40;99.90
11140;DHT22;5624;49.388;11.350;2024-02-16T00:04:31;7.30;99.90
11140;DHT22;5624;49.388;11.350;2024-02-16T00:06:57;7.30;99.90
11140;DHT22;5624;49.388;11.350;2024-02-16T00:09:22;7.30;99.90
11140;DHT22;5624;49.388;11.350;2024-02-16T00:11:48;7.20;99.90
11140;DHT22;5624;49.388;11.350;2024-02-16T00:14:16;7.20;99.90
11140;DHT22;5624;49.388;11.350;2024-02-16T00:16:41;7.20;99.90
11140;DHT22;5624;49.388;11.350;2024-02-16T00:19:07;7.20;99.90
11140;DHT22;5624;49.388;11.350;2024-02-16T00:21:32;7.20;99.90
11140;DHT22;5624;49.388;11.350;2024-02-16T00:23:58;7.30;99.90
11140;DHT22;5624;49.388;11.350;2024-02-16T00:26:23;7.30;99.90
11140;DHT22;5624;49.388;11.350;2024-02-16T00:28:49;7.30;99.90
11140;DHT22;5624;49.388;11.350;2024-02-16T00:31:14;7.30;99.90
11140;DHT22;5624;49.388;11.350;2024-02-16T00:33:40;7.20;99.90
11140;DHT22;5624;49.388;11.350;2024-02-16T00:36:05;7.10;99.90
11140;DHT22;5624;49.388;11.350;2024-02-16T00:38:31;7.10;99.90
11140;DHT22;5624;49.388;11.350;2024-02-16T00:40:56;7.00;99.90
11140;DHT22;5624;49.388;11.350;2024-02-16T00:43:22;7.00;99.90
11140;DHT22;5624;49.388;11.350;2024-02-16T00:45:47;7.10;99.90
11140;DHT22;5624;49.388;11.350;2024-02-16T00:48:14;7.10;99.90
11140;DHT22;5624;49.388;11.350;2024-02-16T00:50:39;7.20;99.90
11140;DHT22;5624;49.388;11.350;2024-02-16T00:53:05;7.20;99.90
11140;DHT22;5624;49.388;11.350;2024-02-16T00:55:30;7.40;99.90
11140;DHT22;5624;49.388;11.350;2024-02-16T00:57:56;7.50;99.90
11140;DHT22;5624;49.388;11.350;2024-02-16T01:00:22;7.50;99.90
11140;DHT22;5624;49.388;11.350;2024-02-16T01:02:51;7.60;99.90
11140;DHT22;5624;49.388;11.350;2024-02-16T01:05:18;7.80;99.90
11140;DHT22;5624;49.388;11.350;2024-02-16T01:07:44;7.80;99.90
11140;DHT22;5624;49.388;11.350;2024-02-16T01:10:10;7.80;99.90
11140;DHT22;5624;49.388;11.350;2024-02-16T01:12:37;7.80;99.90
11140;DHT22;5624;49.388;11.350;2024-02-16T01:15:03;7.80;99.90
11140;DHT22;5624;49.388;11.350;2024-02-16T01:17:29;7.80;99.90
11140;DHT22;5624;49.388;11.350;2024-02-16T01:19:54;7.80;99.90
11140;DHT22;5624;49.388;11.350;2024-02-16T01:22:20;7.80;99.90
11140;DHT22;5624;49.388;11.350;2024-02-16T01:24:45;7.70;99.90
11140;DHT22;5624;49.388;11.350;2024-02-16T01:27:11;7.80;99.90
11140;DHT22;5624;49.388;11.350;2024-02-16T01:29:36;7.80;99.90
11140;DHT22;5624;49.388;11.350;2024-02-16T01:32:02;7.90;99.90
11140;DHT22;5624;49.388;11.350;2024-02-16T01:34:28;8.00;99.90
11140;DHT22;5624;49.388;11.350;2024-02-16T01:36:56;8.00;99.90
11140;DHT22;5624;49.388;11.350;2024-02-16T01:39:21;8.00;99.90
11140;DHT22;5624;49.388;11.350;2024-02-16T01:41:47;8.00;99.90
11140;DHT22;5624;49.388;11.350;2024-02-16T01:44:12;8.00;99.90
11140;DHT22;5624;49.388;11.350;2024-02-16T01:46:38;8.00;99.90
11140;DHT22;5624;49.388;11.350;2024-02-16T01:49:04;7.90;99.90
11140;DHT22;5624;49.388;11.350;2024-02-16T01:51:29;7.90;99.90
11140;DHT22;5624;49.388;11.350;2024-02-16T01:53:55;7.90;99.90
11140;DHT22;5624;49.388;11.350;2024-02-16T01:56:21;8.00;99.90
11140;DHT22;5624;49.388;11.350;2024-02-16T01:58:47;7.90;99.90
11140;DHT22;5624;49.388;11.350;2024-02-16T02:01:13;8.00;99.90
11140;DHT22;5624;49.388;11.350;2024-02-16T02:03:38;7.90;99.90
11140;DHT22;5624;49.388;11.350;2024-02-16T02:06:04;7.90;99.90
11140;DHT22;5624;49.388;11.350;2024-02-16T02:08:30;8.00;99.90
11140;DHT22;5624;49.388;11.350;2024-02-16T02:10:57;8.00;99.90
11140;DHT22;5624;49.388;11.350;2024-02-16T02:13:22;8.00;99.90
11140;DHT22;5624;49.388;11.350;2024-02-16T02:15:48;8.00;99.90
11140;DHT22;5624;49.388;11.350;2024-02-16T02:18:13;8.10;99.90
11140;DHT22;5624;49.388;11.350;2024-02-16T02:20:39;8.10;99.90
11140;DHT22;5624;49.388;11.350;2024-02-16T02:23:05;8.10;99.90
11140;DHT22;5624;49.388;11.350;2024-02-16T02:25:30;8.10;99.90
11140;DHT22;5624;49.388;11.350;2024-02-16T02:27:56;8.00;99.90
11140;DHT22;5624;49.388;11.350;2024-02-16T02:30:22;8.00;99.90
11140;DHT22;5624;49.388;11.350;2024-02-16T02:32:49;8.00;99.90
11140;DHT22;5624;49.388;11.350;2024-02-16T02:35:16;8.00;99.90
11140;DHT22;5624;49.388;11.350;2024-02-16T02:37:42;8.00;99.90
11140;DHT22;5624;49.388;11.350;2024-02-16T02:40:09;8.00;99.90
11140;DHT22;5624;49.388;11.350;2024-02-16T02:42:35;8.00;99.90
11140;DHT22;5624;49.388;11.350;2024-02-16T02:45:02;8.00;99.90
11140;DHT22;5624;49.388;11.350;2024-02-16T02:47:27;8.00;99.90
11140;DHT22;5624;49.388;11.350;2024-02-16T02:49:53;8.00;99.90
11140;DHT22;5624;49.388;11.350;2024-02-16T02:52:20;8.00;99.90
11140;DHT22;5624;49.388;11.350;2024-02-16T02:54:46;8.00;99.90
11140;DHT22;5624;49.388;11.350;2024-02-16T02:57:11;8.00;99.90
11140;DHT22;5624;49.388;11.350;2024-02-16T02:59:37;8.00;99.90
11140;DHT22;5624;49.388;11.350;2024-02-16T03:02:03;7.90;99.90
11140;DHT22;5624;49.388;11.350;2024-02-16T03:04:28;8.00;99.90
11140;DHT22;5624;49.388;11.350;2024-02-16T03:06:54;8.00;99.90
11140;DHT22;5624;49.388;11.350;2024-02-16T03:09:20;8.00;99.90
11140;DHT22;5624;49.388;11.350;2024-02-16T03:11:46;8.00;99.90
11140;DHT22;5624;49.388;11.350;2024-02-16T03:14:11;8.00;99.90
11140;DHT22;5624;49.388;11.350;2024-02-16T03:16:37;8.00;99.90
11140;DHT22;5624;49.388;11.350;2024-02-16T03:19:06;8.00;99.90
11140;DHT22;5624;49.388;11.350;2024-02-16T03:21:31;7.90;99.90
11140;DHT22;5624;49.388;11.350;2024-02-16T03:23:58;8.00;99.90
11140;DHT22;5624;49.388;11.350;2024-02-16T03:26:23;8.00;99.90
11140;DHT22;5624;49.388;11.350;2024-02-16T03:28:49;7.90;99.90
11140;DHT22;5624;49.388;11.350;2024-02-16T03:33:42;7.80;99.90
11140;DHT22;5624;49.388;11.350;2024-02-16T03:36:08;7.80;99.90
11140;DHT22;5624;49.388;11.350;2024-02-16T03:38:34;7.80;99.90
11140;DHT22;5624;49.388;11.350;2024-02-16T03:41:00;7.90;99.90
11140;DHT22;5624;49.388;11.350;2024-02-16T03:43:25;7.90;99.90
11140;DHT22;5624;49.388;11.350;2024-02-16T03:45:51;7.80;99.90
11140;DHT22;5624;49.388;11.350;2024-02-16T03:48:17;7.90;99.90
11140;DHT22;5624;49.388;11.350;2024-02-16T03:50:42;7.90;99.90
11140;DHT22;5624;49.388;11.350;2024-02-16T03:53:08;7.90;99.90
11140;DHT22;5624;49.388;11.350;2024-02-16T03:55:33;7.90;99.90
11140;DHT22;5624;49.388;11.350;2024-02-16T03:58:02;7.80;99.90
11140;DHT22;5624;49.388;11.350;2024-02-16T04:00:28;7.90;99.90
11140;DHT22;5624;49.388;11.350;2024-02-16T04:02:53;7.80;99.90
11140;DHT22;5624;49.388;11.350;2024-02-16T04:05:19;7.80;99.90
11140;DHT22;5624;49.388;11.350;2024-02-16T04:07:44;7.80;99.90
11140;DHT22;5624;49.388;11.350;2024-02-16T04:10:11;7.80;99.90
11140;DHT22;5624;49.388;11.350;2024-02-16T04:12:36;7.80;99.90
11140;DHT22;5624;49.388;11.350;2024-02-16T04:15:02;7.80;99.90
11140;DHT22;5624;49.388;11.350;2024-02-16T04:17:28;7.80;99.90
11140;DHT22;5624;49.388;11.350;2024-02-16T04:19:53;7.70;99.90
11140;DHT22;5624;49.388;11.350;2024-02-16T04:22:19;7.70;99.90
11140;DHT22;5624;49.388;11.350;2024-02-16T04:24:44;7.80;99.90
11140;DHT22;5624;49.388;11.350;2024-02-16T04:27:10;7.70;99.90
11140;DHT22;5624;49.388;11.350;2024-02-16T04:29:36;7.70;99.90
11140;DHT22;5624;49.388;11.350;2024-02-16T04:32:01;7.70;99.90
11140;DHT22;5624;49.388;11.350;2024-02-16T04:34:27;7.70;99.90
11140;DHT22;5624;49.388;11.350;2024-02-16T04:36:52;7.70;99.90
11140;DHT22;5624;49.388;11.350;2024-02-16T04:39:18;7.70;99.90
11140;DHT22;5624;49.388;11.350;2024-02-16T04:41:44;7.70;99.90
11140;DHT22;5624;49.388;11.350;2024-02-16T04:44:10;7.70;99.90
11140;DHT22;5624;49.388;11.350;2024-02-16T04:46:36;7.60;99.90
11140;DHT22;5624;49.388;11.350;2024-02-16T04:49:01;7.70;99.90
11140;DHT22;5624;49.388;11.350;2024-02-16T04:51:27;7.70;99.90
11140;DHT22;5624;49.388;11.350;2024-02-16T04:53:52;7.70;99.90
11140;DHT22;5624;49.388;11.350;2024-02-16T04:56:17;7.80;99.90
11140;DHT22;5624;49.388;11.350;2024-02-16T04:58:43;7.80;99.90
11140;DHT22;5624;49.388;11.350;2024-02-16T05:01:09;7.80;99.90
11140;DHT22;5624;49.388;11.350;2024-02-16T05:03:35;7.80;99.90
11140;DHT22;5624;49.388;11.350;2024-02-16T05:06:00;7.80;99.90
11140;DHT22;5624;49.388;11.350;2024-02-16T05:08:26;7.80;99.90
11140;DHT22;5624;49.388;11.350;2024-02-16T05:10:52;7.80;99.90
11140;DHT22;5624;49.388;11.350;2024-02-16T05:13:17;7.80;99.90
11140;DHT22;5624;49.388;11.350;2024-02-16T05:15:43;7.80;99.90
11140;DHT22;5624;49.388;11.350;2024-02-16T05:18:09;7.80;99.90
11140;DHT22;5624;49.388;11.350;2024-02-16T05:20:37;7.80;99.90
11140;DHT22;5624;49.388;11.350;2024-02-16T05:23:03;7.70;99.90
11140;DHT22;5624;49.388;11.350;2024-02-16T05:25:29;7.80;99.90
11140;DHT22;5624;49.388;11.350;2024-02-16T05:27:55;7.80;99.90
11140;DHT22;5624;49.388;11.350;2024-02-16T05:30:20;7.80;99.90
11140;DHT22;5624;49.388;11.350;2024-02-16T05:32:46;7.90;99.90
11140;DHT22;5624;49.388;11.350;2024-02-16T05:35:13;7.90;99.90
11140;DHT22;5624;49.388;11.350;2024-02-16T05:37:43;7.80;99.90
11140;DHT22;5624;49.388;11.350;2024-02-16T05:40:10;7.90;99.90
11140;DHT22;5624;49.388;11.350;2024-02-16T05:42:47;7.90;99.90
11140;DHT22;5624;49.388;11.350;2024-02-16T05:45:16;7.90;99.90
11140;DHT22;5624;49.388;11.350;2024-02-16T05:47:45;7.90;99.90
11140;DHT22;5624;49.388;11.350;2024-02-16T05:50:12;7.90;99.90
11140;DHT22;5624;49.388;11.350;2024-02-16T05:52:41;7.90;99.90
11140;DHT22;5624;49.388;11.350;2024-02-16T05:55:07;7.90;99.90
11140;DHT22;5624;49.388;11.350;2024-02-16T05:57:34;7.90;99.90
11140;DHT22;5624;49.388;11.350;2024-02-16T06:00:00;8.00;99.90
11140;DHT22;5624;49.388;11.350;2024-02-16T06:02:26;7.90;99.90
11140;DHT22;5624;49.388;11.350;2024-02-16T06:04:52;8.00;99.90
11140;DHT22;5624;49.388;11.350;2024-02-16T06:07:18;7.90;99.90
11140;DHT22;5624;49.388;11.350;2024-02-16T06:09:43;7.90;99.90
11140;DHT22;5624;49.388;11.350;2024-02-16T06:12:09;7.90;99.90
11140;DHT22;5624;49.388;11.350;2024-02-16T06:14:35;7.90;99.90
11140;DHT22;5624;49.388;11.350;2024-02-16T06:17:03;7.90;99.90
11140;DHT22;5624;49.388;11.350;2024-02-16T06:19:29;7.90;99.90
11140;DHT22;5624;49.388;11.350;2024-02-16T06:21:54;7.90;99.90
11140;DHT22;5624;49.388;11.350;2024-02-16T06:24:23;7.90;99.90
11140;DHT22;5624;49.388;11.350;2024-02-16T06:26:49;7.90;99.90
11140;DHT22;5624;49.388;11.350;2024-02-16T06:29:16;7.80;99.90
11140;DHT22;5624;49.388;11.350;2024-02-16T06:31:41;7.80;99.90
11140;DHT22;5624;49.388;11.350;2024-02-16T06:34:07;7.80;99.90
11140;DHT22;5624;49.388;11.350;2024-02-16T06:36:33;7.80;99.90
11140;DHT22;5624;49.388;11.350;2024-02-16T06:38:59;7.80;99.90
11140;DHT22;5624;49.388;11.350;2024-02-16T06:41:25;7.90;99.90
11140;DHT22;5624;49.388;11.350;2024-02-16T06:43:50;7.90;99.90
11140;DHT22;5624;49.388;11.350;2024-02-16T06:46:16;7.90;99.90
11140;DHT22;5624;49.388;11.350;2024-02-16T06:48:41;7.90;99.90
11140;DHT22;5624;49.388;11.350;2024-02-16T06:51:07;7.90;99.90
11140;DHT22;5624;49.388;11.350;2024-02-16T06:53:32;7.80;99.90
11140;DHT22;5624;49.388;11.350;2024-02-16T06:55:58;7.90;99.90
11140;DHT22;5624;49.388;11.350;2024-02-16T06:58:23;7.90;99.90
11140;DHT22;5624;49.388;11.350;2024-02-16T07:00:50;7.90;99.90
11140;DHT22;5624;49.388;11.350;2024-02-16T07:03:15;7.90;99.90
11140;DHT22;5624;49.388;11.350;2024-02-16T07:05:41;8.00;99.90
11140;DHT22;5624;49.388;11.350;2024-02-16T07:08:06;8.00;99.90
11140;DHT22;5624;49.388;11.350;2024-02-16T07:10:33;8.00;99.90
11140;DHT22;5624;49.388;11.350;2024-02-16T07:12:59;8.10;99.90
11140;DHT22;5624;49.388;11.350;2024-02-16T07:15:24;8.00;99.90
11140;DHT22;5624;49.388;11.350;2024-02-16T07:17:51;8.10;99.90
11140;DHT22;5624;49.388;11.350;2024-02-16T07:20:17;8.10;99.90
11140;DHT22;5624;49.388;11.350;2024-02-16T07:22:43;8.10;99.90
11140;DHT22;5624;49.388;11.350;2024-02-16T07:25:11;8.20;99.90
11140;DHT22;5624;49.388;11.350;2024-02-16T07:27:38;8.10;99.90
11140;DHT22;5624;49.388;11.350;2024-02-16T07:30:04;8.20;99.90
11140;DHT22;5624;49.388;11.350;2024-02-16T07:32:29;8.20;99.90
11140;DHT22;5624;49.388;11.350;2024-02-16T07:34:55;8.20;99.90
11140;DHT22;5624;49.388;11.350;2024-02-16T07:37:20;8.30;99.90
11140;DHT22;5624;49.388;11.350;2024-02-16T07:39:46;8.40;99.20
11140;DHT22;5624;49.388;11.350;2024-02-16T07:42:12;8.40;99.00
11140;DHT22;5624;49.388;11.350;2024-02-16T07:44:38;8.60;98.70
11140;DHT22;5624;49.388;11.350;2024-02-16T07:47:04;9.00;96.50
11140;DHT22;5624;49.388;11.350;2024-02-16T07:49:30;9.20;95.60
11140;DHT22;5624;49.388;11.350;2024-02-16T07:51:55;9.20;95.30
11140;DHT22;5624;49.388;11.350;2024-02-16T07:54:21;9.20;94.70
11140;DHT22;5624;49.388;11.350;2024-02-16T07:56:46;9.30;94.60
11140;DHT22;5624;49.388;11.350;2024-02-16T07:59:12;9.60;92.60
11140;DHT22;5624;49.388;11.350;2024-02-16T08:01:38;9.90;91.60
11140;DHT22;5624;49.388;11.350;2024-02-16T08:04:04;9.90;91.00
11140;DHT22;5624;49.388;11.350;2024-02-16T08:06:29;10.20;91.80
11140;DHT22;5624;49.388;11.350;2024-02-16T08:08:55;10.20;89.40
11140;DHT22;5624;49.388;11.350;2024-02-16T08:11:22;10.10;89.90
11140;DHT22;5624;49.388;11.350;2024-02-16T08:13:47;9.90;89.90
11140;DHT22;5624;49.388;11.350;2024-02-16T08:16:13;10.00;89.60
11140;DHT22;5624;49.388;11.350;2024-02-16T08:18:38;10.40;89.50
11140;DHT22;5624;49.388;11.350;2024-02-16T08:21:04;10.60;87.00
11140;DHT22;5624;49.388;11.350;2024-02-16T08:23:29;10.60;87.20
11140;DHT22;5624;49.388;11.350;2024-02-16T08:25:56;10.70;86.50
11140;DHT22;5624;49.388;11.350;2024-02-16T08:28:24;11.00;84.60
11140;DHT22;5624;49.388;11.350;2024-02-16T08:30:50;11.50;84.20
11140;DHT22;5624;49.388;11.350;2024-02-16T08:33:15;12.00;82.60
11140;DHT22;5624;49.388;11.350;2024-02-16T08:35:41;11.90;80.20
11140;DHT22;5624;49.388;11.350;2024-02-16T08:38:06;11.90;79.80
11140;DHT22;5624;49.388;11.350;2024-02-16T08:40:36;12.20;80.00
11140;DHT22;5624;49.388;11.350;2024-02-16T08:43:02;12.80;76.80
11140;DHT22;5624;49.388;11.350;2024-02-16T08:45:28;13.60;74.50
11140;DHT22;5624;49.388;11.350;2024-02-16T08:47:54;14.00;70.50
11140;DHT22;5624;49.388;11.350;2024-02-16T08:50:22;13.90;71.80
11140;DHT22;5624;49.388;11.350;2024-02-16T08:52:47;14.20;69.90
11140;DHT22;5624;49.388;11.350;2024-02-16T08:55:13;14.10;70.10
11140;DHT22;5624;49.388;11.350;2024-02-16T08:57:38;13.60;71.20
11140;DHT22;5624;49.388;11.350;2024-02-16T09:00:06;13.70;71.70
11140;DHT22;5624;49.388;11.350;2024-02-16T09:02:32;14.20;70.60
11140;DHT22;5624;49.388;11.350;2024-02-16T09:04:58;14.50;67.00
11140;DHT22;5624;49.388;11.350;2024-02-16T09:07:23;15.10;67.60
11140;DHT22;5624;49.388;11.350;2024-02-16T09:09:51;15.40;63.80
11140;DHT22;5624;49.388;11.350;2024-02-16T09:12:16;15.20;63.90
11140;DHT22;5624;49.388;11.350;2024-02-16T09:14:42;15.00;65.70
11140;DHT22;5624;49.388;11.350;2024-02-16T09:17:07;14.70;64.80
11140;DHT22;5624;49.388;11.350;2024-02-16T09:19:33;14.20;67.40
11140;DHT22;5624;49.388;11.350;2024-02-16T09:21:59;13.80;67.70
11140;DHT22;5624;49.388;11.350;2024-02-16T09:24:27;13.10;71.00
11140;DHT22;5624;49.388;11.350;2024-02-16T09:26:55;12.80;72.70
11140;DHT22;5624;49.388;11.350;2024-02-16T09:29:20;12.60;74.80
11140;DHT22;5624;49.388;11.350;2024-02-16T09:31:49;12.50;74.20
11140;DHT22;5624;49.388;11.350;2024-02-16T09:34:14;12.20;75.40
11140;DHT22;5624;49.388;11.350;2024-02-16T09:36:40;12.40;77.30
11140;DHT22;5624;49.388;11.350;2024-02-16T09:39:06;12.60;76.40
11140;DHT22;5624;49.388;11.350;2024-02-16T09:41:34;13.00;75.60
11140;DHT22;5624;49.388;11.350;2024-02-16T09:44:02;13.40;72.90
11140;DHT22;5624;49.388;11.350;2024-02-16T09:46:30;13.80;73.40
11140;DHT22;5624;49.388;11.350;2024-02-16T09:49:00;14.00;70.20
11140;DHT22;5624;49.388;11.350;2024-02-16T09:51:26;14.10;68.50
11140;DHT22;5624;49.388;11.350;2024-02-16T09:53:53;14.40;68.80
11140;DHT22;5624;49.388;11.350;2024-02-16T09:56:20;14.20;67.80
11140;DHT22;5624;49.388;11.350;2024-02-16T09:58:46;14.40;69.30
11140;DHT22;5624;49.388;11.350;2024-02-16T10:01:18;14.80;67.20
11140;DHT22;5624;49.388;11.350;2024-02-16T10:03:44;14.90;66.20
11140;DHT22;5624;49.388;11.350;2024-02-16T10:06:11;14.60;67.80
11140;DHT22;5624;49.388;11.350;2024-02-16T10:08:52;14.60;67.40
11140;DHT22;5624;49.388;11.350;2024-02-16T10:11:19;14.60;69.60
11140;DHT22;5624;49.388;11.350;2024-02-16T10:14:01;14.60;67.00
11140;DHT22;5624;49.388;11.350;2024-02-16T10:16:28;14.60;68.10
11140;DHT22;5624;49.388;11.350;2024-02-16T10:19:05;14.50;67.50
11140;DHT22;5624;49.388;11.350;2024-02-16T10:21:31;14.40;68.80
11140;DHT22;5624;49.388;11.350;2024-02-16T10:24:01;14.40;68.40
11140;DHT22;5624;49.388;11.350;2024-02-16T10:26:28;14.60;69.20
11140;DHT22;5624;49.388;11.350;2024-02-16T10:28:55;14.80;67.50
11140;DHT22;5624;49.388;11.350;2024-02-16T10:31:23;14.60;66.80
11140;DHT22;5624;49.388;11.350;2024-02-16T10:33:56;14.40;68.40
11140;DHT22;5624;49.388;11.350;2024-02-16T10:36:22;14.20;67.60
11140;DHT22;5624;49.388;11.350;2024-02-16T10:38:50;14.10;70.00
11140;DHT22;5624;49.388;11.350;2024-02-16T10:41:16;14.00;68.40
11140;DHT22;5624;49.388;11.350;2024-02-16T10:43:45;13.90;69.10
11140;DHT22;5624;49.388;11.350;2024-02-16T10:46:13;13.90;69.80
11140;DHT22;5624;49.388;11.350;2024-02-16T10:48:40;14.00;70.10
11140;DHT22;5624;49.388;11.350;2024-02-16T10:51:06;13.90;69.30
11140;DHT22;5624;49.388;11.350;2024-02-16T10:53:33;13.70;69.00
11140;DHT22;5624;49.388;11.350;2024-02-16T10:56:00;13.60;70.50
11140;DHT22;5624;49.388;11.350;2024-02-16T10:58:27;13.50;72.00
11140;DHT22;5624;49.388;11.350;2024-02-16T11:00:55;13.30;73.10
11140;DHT22;5624;49.388;11.350;2024-02-16T11:03:23;13.30;74.10
11140;DHT22;5624;49.388;11.350;2024-02-16T11:05:53;13.30;73.60
11140;DHT22;5624;49.388;11.350;2024-02-16T11:08:24;13.10;73.50
11140;DHT22;5624;49.388;11.350;2024-02-16T11:10:59;13.10;74.70
11140;DHT22;5624;49.388;11.350;2024-02-16T11:13:28;13.00;75.60
11140;DHT22;5624;49.388;11.350;2024-02-16T11:16:06;13.00;75.00
11140;DHT22;5624;49.388;11.350;2024-02-16T11:18:38;13.00;74.40
11140;DHT22;5624;49.388;11.350;2024-02-16T11:21:05;12.80;75.90
11140;DHT22;5624;49.388;11.350;2024-02-16T11:23:35;12.80;75.60
11140;DHT22;5624;49.388;11.350;2024-02-16T11:26:05;12.80;76.50
11140;DHT22;5624;49.388;11.350;2024-02-16T11:28:36;12.80;75.70
11140;DHT22;5624;49.388;11.350;2024-02-16T11:31:02;12.80;76.00
11140;DHT22;5624;49.388;11.350;2024-02-16T11:33:28;12.80;75.40
11140;DHT22;5624;49.388;11.350;2024-02-16T11:35:59;12.70;76.00
11140;DHT22;5624;49.388;11.350;2024-02-16T11:38:25;12.60;76.60
11140;DHT22;5624;49.388;11.350;2024-02-16T11:41:04;12.50;76.30
11140;DHT22;5624;49.388;11.350;2024-02-16T11:43:31;12.40;76.70
11140;DHT22;5624;49.388;11.350;2024-02-16T11:46:10;12.60;76.50
11140;DHT22;5624;49.388;11.350;2024-02-16T11:48:35;12.70;77.70
11140;DHT22;5624;49.388;11.350;2024-02-16T11:51:03;12.90;77.40
11140;DHT22;5624;49.388;11.350;2024-02-16T11:53:30;12.90;75.80
11140;DHT22;5624;49.388;11.350;2024-02-16T11:55:56;12.90;76.00
11140;DHT22;5624;49.388;11.350;2024-02-16T11:58:22;13.00;75.20
11140;DHT22;5624;49.388;11.350;2024-02-16T12:00:48;13.00;76.70
11140;DHT22;5624;49.388;11.350;2024-02-16T12:03:24;13.20;76.40
11140;DHT22;5624;49.388;11.350;2024-02-16T12:05:51;13.20;76.10
11140;DHT22;5624;49.388;11.350;2024-02-16T12:08:17;13.20;75.80
11140;DHT22;5624;49.388;11.350;2024-02-16T12:10:44;13.20;76.20
11140;DHT22;5624;49.388;11.350;2024-02-16T12:13:10;13.10;77.50
11140;DHT22;5624;49.388;11.350;2024-02-16T12:15:38;13.00;77.50
11140;DHT22;5624;49.388;11.350;2024-02-16T12:18:04;12.90;78.10
11140;DHT22;5624;49.388;11.350;2024-02-16T12:20:30;12.90;78.50
11140;DHT22;5624;49.388;11.350;2024-02-16T12:22:57;13.00;78.00
11140;DHT22;5624;49.388;11.350;2024-02-16T12:25:24;13.00;78.40
11140;DHT22;5624;49.388;11.350;2024-02-16T12:27:50;13.00;78.50
11140;DHT22;5624;49.388;11.350;2024-02-16T12:30:16;13.20;78.50
11140;DHT22;5624;49.388;11.350;2024-02-16T12:32:41;13.30;77.10
11140;DHT22;5624;49.388;11.350;2024-02-16T12:35:07;13.30;77.30
11140;DHT22;5624;49.388;11.350;2024-02-16T12:37:33;13.40;77.50
11140;DHT22;5624;49.388;11.350;2024-02-16T12:40:00;13.30;76.00
11140;DHT22;5624;49.388;11.350;2024-02-16T12:42:27;13.40;75.90
11140;DHT22;5624;49.388;11.350;2024-02-16T12:44:52;13.50;76.40
11140;DHT22;5624;49.388;11.350;2024-02-16T12:47:18;13.60;76.90
11140;DHT22;5624;49.388;11.350;2024-02-16T12:49:43;13.60;75.50
11140;DHT22;5624;49.388;11.350;2024-02-16T12:52:09;13.60;74.80
11140;DHT22;5624;49.388;11.350;2024-02-16T12:54:34;13.60;75.30
11140;DHT22;5624;49.388;11.350;2024-02-16T12:57:00;13.50;75.50
11140;DHT22;5624;49.388;11.350;2024-02-16T12:59:26;13.60;76.00
11140;DHT22;5624;49.388;11.350;2024-02-16T13:01:51;13.70;76.00
11140;DHT22;5624;49.388;11.350;2024-02-16T13:04:17;13.80;76.20
11140;DHT22;5624;49.388;11.350;2024-02-16T13:06:47;13.80;76.50
11140;DHT22;5624;49.388;11.350;2024-02-16T13:09:12;13.90;74.50
11140;DHT22;5624;49.388;11.350;2024-02-16T13:11:38;14.00;74.10
11140;DHT22;5624;49.388;11.350;2024-02-16T13:14:05;14.00;74.30
11140;DHT22;5624;49.388;11.350;2024-02-16T13:16:31;14.00;74.30
11140;DHT22;5624;49.388;11.350;2024-02-16T13:18:57;13.90;74.60
11140;DHT22;5624;49.388;11.350;2024-02-16T13:21:23;13.90;75.90
11140;DHT22;5624;49.388;11.350;2024-02-16T13:23:48;13.80;74.30
11140;DHT22;5624;49.388;11.350;2024-02-16T13:26:14;13.70;74.90
11140;DHT22;5624;49.388;11.350;2024-02-16T13:28:40;13.70;75.60
11140;DHT22;5624;49.388;11.350;2024-02-16T13:31:06;13.80;74.80
11140;DHT22;5624;49.388;11.350;2024-02-16T13:33:31;13.90;75.60
11140;DHT22;5624;49.388;11.350;2024-02-16T13:35:57;14.00;75.50
11140;DHT22;5624;49.388;11.350;2024-02-16T13:38:23;13.90;75.30
11140;DHT22;5624;49.388;11.350;2024-02-16T13:40:49;13.90;75.40
11140;DHT22;5624;49.388;11.350;2024-02-16T13:43:14;13.80;76.10
11140;DHT22;5624;49.388;11.350;2024-02-16T13:45:51;13.80;75.90
11140;DHT22;5624;49.388;11.350;2024-02-16T13:48:17;13.80;74.60
11140;DHT22;5624;49.388;11.350;2024-02-16T13:50:49;13.80;74.10
11140;DHT22;5624;49.388;11.350;2024-02-16T13:53:16;13.70;75.80
11140;DHT22;5624;49.388;11.350;2024-02-16T13:55:44;13.70;76.10
11140;DHT22;5624;49.388;11.350;2024-02-16T13:58:13;13.60;75.40
11140;DHT22;5624;49.388;11.350;2024-02-16T14:00:39;13.50;75.50
11140;DHT22;5624;49.388;11.350;2024-02-16T14:03:06;13.50;75.60
11140;DHT22;5624;49.388;11.350;2024-02-16T14:05:36;13.30;76.20
11140;DHT22;5624;49.388;11.350;2024-02-16T14:08:02;13.30;76.90
11140;DHT22;5624;49.388;11.350;2024-02-16T14:10:28;13.20;77.40
11140;DHT22;5624;49.388;11.350;2024-02-16T14:12:54;13.10;77.40
11140;DHT22;5624;49.388;11.350;2024-02-16T14:15:19;13.10;78.30
11140;DHT22;5624;49.388;11.350;2024-02-16T14:17:45;13.10;77.90
11140;DHT22;5624;49.388;11.350;2024-02-16T14:20:11;12.90;79.10
11140;DHT22;5624;49.388;11.350;2024-02-16T14:22:37;13.00;78.80
11140;DHT22;5624;49.388;11.350;2024-02-16T14:25:02;12.90;79.50
11140;DHT22;5624;49.388;11.350;2024-02-16T14:27:29;12.90;79.60
11140;DHT22;5624;49.388;11.350;2024-02-16T14:29:55;12.90;80.10
11140;DHT22;5624;49.388;11.350;2024-02-16T14:32:20;13.00;79.40
11140;DHT22;5624;49.388;11.350;2024-02-16T14:34:46;13.00;79.20
11140;DHT22;5624;49.388;11.350;2024-02-16T14:37:11;13.00;79.90
11140;DHT22;5624;49.388;11.350;2024-02-16T14:39:37;12.90;79.80
11140;DHT22;5624;49.388;11.350;2024-02-16T14:42:03;12.90;80.20
11140;DHT22;5624;49.388;11.350;2024-02-16T14:44:28;12.90;80.10
11140;DHT22;5624;49.388;11.350;2024-02-16T14:46:54;12.90;79.90
11140;DHT22;5624;49.388;11.350;2024-02-16T14:49:19;12.90;79.70
11140;DHT22;5624;49.388;11.350;2024-02-16T14:51:50;12.80;79.50
11140;DHT22;5624;49.388;11.350;2024-02-16T14:54:16;12.80;79.70
11140;DHT22;5624;49.388;11.350;2024-02-16T14:56:41;12.60;80.10
11140;DHT22;5624;49.388;11.350;2024-02-16T14:59:07;12.60;79.70
11140;DHT22;5624;49.388;11.350;2024-02-16T15:01:33;12.40;80.80
11140;DHT22;5624;49.388;11.350;2024-02-16T15:03:58;12.30;81.40
11140;DHT22;5624;49.388;11.350;2024-02-16T15:06:24;12.20;82.30
11140;DHT22;5624;49.388;11.350;2024-02-16T15:08:50;12.20;82.70
11140;DHT22;5624;49.388;11.350;2024-02-16T15:11:16;12.10;83.80
11140;DHT22;5624;49.388;11.350;2024-02-16T15:13:42;12.10;83.40
11140;DHT22;5624;49.388;11.350;2024-02-16T15:16:08;12.00;83.60
11140;DHT22;5624;49.388;11.350;2024-02-16T15:18:35;12.00;84.30
11140;DHT22;5624;49.388;11.350;2024-02-16T15:21:00;11.90;84.00
11140;DHT22;5624;49.388;11.350;2024-02-16T15:23:26;11.90;84.40
11140;DHT22;5624;49.388;11.350;2024-02-16T15:25:52;11.80;84.80
11140;DHT22;5624;49.388;11.350;2024-02-16T15:28:17;11.80;85.10
11140;DHT22;5624;49.388;11.350;2024-02-16T15:30:43;11.70;85.30
11140;DHT22;5624;49.388;11.350;2024-02-16T15:33:10;11.70;85.80
11140;DHT22;5624;49.388;11.350;2024-02-16T15:35:36;11.60;86.30
11140;DHT22;5624;49.388;11.350;2024-02-16T15:38:01;11.50;86.70